createdAt,value
2018-02-13T00:00:18.065Z,0.81
2018-02-13T00:01:18.033Z,0.74
2018-02-13T00:02:18.246Z,0.76
2018-02-13T00:03:18.217Z,0.77
2018-02-13T00:04:17.936Z,0.8
2018-02-13T00:05:17.903Z,0.73
2018-02-13T00:06:17.880Z,0.74
2018-02-13T00:07:18.117Z,0.81
2018-02-13T00:08:17.806Z,0.83
2018-02-13T00:09:18.019Z,0.77
2018-02-13T00:10:17.996Z,0.77
2018-02-13T00:11:17.961Z,0.68
2018-02-13T00:12:17.676Z,0.74
2018-02-13T00:13:17.901Z,0.77
2018-02-13T00:14:17.860Z,0.68
2018-02-13T00:15:17.825Z,0.74
2018-02-13T00:16:17.792Z,0.74
2018-02-13T00:17:17.765Z,0.76
2018-02-13T00:18:17.731Z,0.68
2018-02-13T00:19:17.703Z,0.73
2018-02-13T00:20:17.666Z,0.73
2018-02-13T00:21:17.638Z,0.73
2018-02-13T00:22:17.652Z,0.69
2018-02-13T00:23:17.080Z,0.7
2018-02-13T00:24:17.046Z,0.7
2018-02-13T00:25:17.504Z,0.69
2018-02-13T00:26:17.481Z,0.63
2018-02-13T00:27:17.194Z,0.66
2018-02-13T00:28:17.408Z,0.73
2018-02-13T00:29:17.131Z,0.73
2018-02-13T00:30:17.363Z,0.66
2018-02-13T00:31:17.066Z,0.65
2018-02-13T00:32:17.278Z,0.76
2018-02-13T00:33:17.250Z,0.66
2018-02-13T00:34:17.213Z,0.69
2018-02-13T00:35:16.942Z,0.69
2018-02-13T00:36:17.147Z,0.7
2018-02-13T00:37:17.117Z,0.7
2018-02-13T00:38:17.086Z,0.66
2018-02-13T00:39:17.051Z,0.65
2018-02-13T00:40:17.122Z,0.65
2018-02-13T00:41:16.740Z,0.6
2018-02-13T00:42:16.959Z,0.56
2018-02-13T00:43:16.919Z,0.55
2018-02-13T00:44:16.895Z,0.55
2018-02-13T00:45:16.867Z,0.58
2018-02-13T00:46:16.582Z,0.56
2018-02-13T00:47:16.548Z,0.55
2018-02-13T00:48:16.759Z,0.49
2018-02-13T00:49:16.734Z,0.52
2018-02-13T00:50:16.700Z,0.49
2018-02-13T00:51:16.670Z,0.4
2018-02-13T00:52:16.385Z,0.43
2018-02-13T00:53:16.599Z,0.43
2018-02-13T00:54:16.323Z,0.37
2018-02-13T00:55:16.537Z,0.4
2018-02-13T00:56:16.501Z,0.44
2018-02-13T00:57:16.467Z,0.44
2018-02-13T00:58:16.193Z,0.43
2018-02-13T00:59:16.162Z,0.46
2018-02-13T01:00:16.378Z,0.5
2018-02-13T01:01:16.344Z,0.46
2018-02-13T01:02:16.312Z,0.41
2018-02-13T01:03:16.279Z,0.41
2018-02-13T01:04:15.994Z,0.41
2018-02-13T01:05:16.209Z,0.41
2018-02-13T01:06:16.172Z,0.4
2018-02-13T01:07:15.649Z,0.41
2018-02-13T01:08:15.633Z,0.41
2018-02-13T01:09:16.080Z,0.36
2018-02-13T01:10:15.799Z,0.29
2018-02-13T01:11:16.015Z,0.32
2018-02-13T01:12:15.987Z,0.31
2018-02-13T01:13:15.705Z,0.31
2018-02-13T01:14:15.671Z,0.25
2018-02-13T01:15:15.886Z,0.23
2018-02-13T01:16:15.360Z,0.19
2018-02-13T01:17:15.822Z,0.22
2018-02-13T01:18:15.785Z,0.21
2018-02-13T01:19:15.510Z,0.22
2018-02-13T01:20:15.725Z,0.23
2018-02-13T01:21:15.450Z,0.23
2018-02-13T01:22:15.409Z,0.22
2018-02-13T01:23:15.375Z,0.29
2018-02-13T01:24:15.347Z,0.23
2018-02-13T01:25:15.554Z,0.12
2018-02-13T01:26:15.533Z,0.29
2018-02-13T01:27:15.053Z,0.25
2018-02-13T01:28:15.462Z,0.23
2018-02-13T01:29:15.440Z,0.26
2018-02-13T01:30:15.395Z,0.26
2018-02-13T01:31:15.361Z,0.22
2018-02-13T01:32:15.183Z,0.28
2018-02-13T01:33:15.309Z,0.23
2018-02-13T01:34:14.774Z,0.23
2018-02-13T01:35:15.232Z,0.23
2018-02-13T01:36:14.956Z,0.22
2018-02-13T01:37:15.170Z,0.19
2018-02-13T01:38:15.137Z,0.18
2018-02-13T01:39:15.106Z,0.22
2018-02-13T01:40:14.821Z,0.16
2018-02-13T01:41:15.039Z,0.21
2018-02-13T01:42:14.757Z,0.19
2018-02-13T01:43:14.967Z,0.19
2018-02-13T01:44:14.692Z,0.21
2018-02-13T01:45:14.911Z,0.21
2018-02-13T01:46:14.624Z,0.28
2018-02-13T01:47:14.599Z,0.19
2018-02-13T01:48:14.804Z,0.16
2018-02-13T01:49:14.799Z,0.21
2018-02-13T01:50:14.741Z,0.25
2018-02-13T01:51:14.706Z,0.19
2018-02-13T01:52:14.679Z,0.19
2018-02-13T01:53:14.400Z,0.16
2018-02-13T01:54:14.371Z,0.12
2018-02-13T01:55:14.329Z,0.16
2018-02-13T01:56:14.296Z,0.12
2018-02-13T01:57:14.511Z,0.08
2018-02-13T01:58:14.478Z,0.18
2018-02-13T01:59:14.203Z,0.12
2018-02-13T02:00:14.408Z,0.15
2018-02-13T02:01:14.379Z,0.18
2018-02-13T02:02:14.102Z,0.18
2018-02-13T02:03:14.068Z,0.08
2018-02-13T02:04:14.282Z,0.1
2018-02-13T02:05:13.760Z,0.15
2018-02-13T02:06:13.972Z,0.18
2018-02-13T02:07:14.186Z,0.11
2018-02-13T02:08:13.906Z,0.11
2018-02-13T02:09:13.878Z,0.11
2018-02-13T02:10:14.083Z,0.19
2018-02-13T02:11:14.049Z,0.12
2018-02-13T02:12:14.031Z,0.16
2018-02-13T02:13:13.987Z,0.08
2018-02-13T02:14:13.957Z,0.11
2018-02-13T02:15:13.676Z,0.11
2018-02-13T02:16:13.890Z,0.11
2018-02-13T02:17:13.613Z,0.11
2018-02-13T02:18:13.578Z,0.11
2018-02-13T02:19:13.789Z,0.11
2018-02-13T02:20:13.758Z,0.12
2018-02-13T02:21:13.721Z,0.07
2018-02-13T02:22:13.696Z,0.07
2018-02-13T02:23:13.657Z,0.1
2018-02-13T02:24:13.383Z,0.16
2018-02-13T02:25:13.600Z,0.08
2018-02-13T02:26:13.574Z,0.21
2018-02-13T02:27:13.526Z,0.18
2018-02-13T02:28:13.003Z,0.12
2018-02-13T02:29:13.217Z,0.1
2018-02-13T02:30:13.185Z,0.18
2018-02-13T02:31:13.403Z,0.1
2018-02-13T02:32:13.371Z,0.11
2018-02-13T02:33:13.336Z,0.1
2018-02-13T02:34:13.303Z,0.08
2018-02-13T02:35:13.266Z,0.11
2018-02-13T02:36:13.235Z,0.12
2018-02-13T02:37:13.204Z,0.16
2018-02-13T02:38:13.178Z,0.1
2018-02-13T02:39:12.891Z,0.15
2018-02-13T02:40:12.861Z,0.15
2018-02-13T02:41:13.084Z,0.11
2018-02-13T02:42:13.040Z,0.18
2018-02-13T02:43:13.011Z,0.07
2018-02-13T02:44:13.041Z,0.08
2018-02-13T02:45:12.695Z,-0.02
2018-02-13T02:46:12.915Z,0.12
2018-02-13T02:47:12.647Z,0.1
2018-02-13T02:48:12.852Z,0.1
2018-02-13T02:49:12.814Z,0.12
2018-02-13T02:50:12.281Z,0.11
2018-02-13T02:51:12.747Z,0.08
2018-02-13T02:52:12.714Z,0.11
2018-02-13T02:53:12.441Z,0.05
2018-02-13T02:54:12.646Z,0.11
2018-02-13T02:55:12.612Z,0.16
2018-02-13T02:56:12.605Z,0.12
2018-02-13T02:57:12.546Z,0.19
2018-02-13T02:58:12.519Z,0.11
2018-02-13T02:59:12.236Z,0.16
2018-02-13T03:00:12.447Z,0.18
2018-02-13T03:01:12.413Z,0.21
2018-02-13T03:02:12.386Z,0.15
2018-02-13T03:03:12.358Z,0.19
2018-02-13T03:04:12.318Z,0.16
2018-02-13T03:05:12.283Z,0.15
2018-02-13T03:06:12.007Z,0.11
2018-02-13T03:07:12.216Z,0.18
2018-02-13T03:08:12.185Z,0.08
2018-02-13T03:09:12.164Z,0.16
2018-02-13T03:10:11.878Z,0.16
2018-02-13T03:11:12.085Z,0.08
2018-02-13T03:12:11.808Z,0.18
2018-02-13T03:13:12.022Z,0.04
2018-02-13T03:14:11.743Z,0.18
2018-02-13T03:15:11.964Z,0.08
2018-02-13T03:16:11.680Z,0.1
2018-02-13T03:17:11.889Z,0.08
2018-02-13T03:18:11.611Z,0.12
2018-02-13T03:19:11.575Z,-0.03
2018-02-13T03:20:11.548Z,0.11
2018-02-13T03:21:11.763Z,0.05
2018-02-13T03:22:11.725Z,0.19
2018-02-13T03:23:11.700Z,0.07
2018-02-13T03:24:11.660Z,0.08
2018-02-13T03:25:11.630Z,0.1
2018-02-13T03:26:11.601Z,0.1
2018-02-13T03:27:11.319Z,0.22
2018-02-13T03:28:11.536Z,0.08
2018-02-13T03:29:11.496Z,0.18
2018-02-13T03:30:11.467Z,0.21
2018-02-13T03:31:11.435Z,0.08
2018-02-13T03:32:11.401Z,0.15
2018-02-13T03:33:11.119Z,0.12
2018-02-13T03:34:11.334Z,0.12
2018-02-13T03:35:11.056Z,0.16
2018-02-13T03:36:11.269Z,0.16
2018-02-13T03:37:11.234Z,0.15
2018-02-13T03:38:10.710Z,0.1
2018-02-13T03:39:11.171Z,0.15
2018-02-13T03:40:11.132Z,0.16
2018-02-13T03:41:11.101Z,0.08
2018-02-13T03:42:10.826Z,0.12
2018-02-13T03:43:11.039Z,0.04
2018-02-13T03:44:10.758Z,0.18
2018-02-13T03:45:10.973Z,0.18
2018-02-13T03:46:10.947Z,0.15
2018-02-13T03:47:10.971Z,0.15
2018-02-13T03:48:10.384Z,0.15
2018-02-13T03:49:10.842Z,0.12
2018-02-13T03:50:10.565Z,0.18
2018-02-13T03:51:10.533Z,0.1
2018-02-13T03:52:10.496Z,0.1
2018-02-13T03:53:10.714Z,0.16
2018-02-13T03:54:10.432Z,0.16
2018-02-13T03:55:10.643Z,0.05
2018-02-13T03:56:10.617Z,-0.03
2018-02-13T03:57:10.584Z,0.08
2018-02-13T03:58:10.545Z,0.08
2018-02-13T03:59:10.511Z,0
2018-02-13T04:00:10.480Z,-0.03
2018-02-13T04:01:10.448Z,0.07
2018-02-13T04:02:10.242Z,0.03
2018-02-13T04:03:10.382Z,0.01
2018-02-13T04:04:10.124Z,0.08
2018-02-13T04:05:10.321Z,0.04
2018-02-13T04:06:10.050Z,0.01
2018-02-13T04:07:10.012Z,0.05
2018-02-13T04:08:10.222Z,-0.02
2018-02-13T04:09:10.189Z,-0.08
2018-02-13T04:10:10.150Z,-0.1
2018-02-13T04:11:09.874Z,-0.03
2018-02-13T04:12:09.597Z,-0.03
2018-02-13T04:13:09.813Z,-0.13
2018-02-13T04:14:10.019Z,-0.1
2018-02-13T04:15:09.991Z,-0.2
2018-02-13T04:16:09.714Z,-0.13
2018-02-13T04:17:09.917Z,-0.17
2018-02-13T04:18:09.647Z,-0.18
2018-02-13T04:19:09.614Z,-0.1
2018-02-13T04:20:09.578Z,-0.14
2018-02-13T04:21:09.556Z,-0.13
2018-02-13T04:22:09.767Z,-0.14
2018-02-13T04:23:09.236Z,-0.15
2018-02-13T04:24:09.451Z,-0.15
2018-02-13T04:25:09.414Z,-0.14
2018-02-13T04:26:09.383Z,-0.14
2018-02-13T04:27:09.595Z,-0.21
2018-02-13T04:28:09.570Z,-0.21
2018-02-13T04:29:09.533Z,-0.18
2018-02-13T04:30:09.495Z,-0.21
2018-02-13T04:31:09.219Z,-0.26
2018-02-13T04:32:09.185Z,-0.25
2018-02-13T04:33:09.397Z,-0.18
2018-02-13T04:34:09.365Z,-0.21
2018-02-13T04:35:09.333Z,-0.28
2018-02-13T04:36:09.302Z,-0.14
2018-02-13T04:37:09.266Z,-0.23
2018-02-13T04:38:09.232Z,-0.2
2018-02-13T04:39:09.198Z,-0.25
2018-02-13T04:40:08.924Z,-0.15
2018-02-13T04:41:09.134Z,-0.21
2018-02-13T04:42:08.901Z,-0.28
2018-02-13T04:43:09.068Z,-0.2
2018-02-13T04:44:09.036Z,-0.23
2018-02-13T04:45:09.007Z,-0.21
2018-02-13T04:46:08.720Z,-0.34
2018-02-13T04:47:08.443Z,-0.29
2018-02-13T04:48:08.659Z,-0.2
2018-02-13T04:49:08.871Z,-0.25
2018-02-13T04:50:08.593Z,-0.32
2018-02-13T04:51:08.809Z,-0.35
2018-02-13T04:52:08.769Z,-0.36
2018-02-13T04:53:08.737Z,-0.35
2018-02-13T04:54:08.709Z,-0.35
2018-02-13T04:55:08.673Z,-0.36
2018-02-13T04:56:08.149Z,-0.36
2018-02-13T04:57:08.361Z,-0.31
2018-02-13T04:58:08.575Z,-0.39
2018-02-13T04:59:08.294Z,-0.44
2018-02-13T05:00:08.262Z,-0.38
2018-02-13T05:01:08.222Z,-0.36
2018-02-13T05:02:08.439Z,-0.47
2018-02-13T05:03:08.408Z,-0.36
2018-02-13T05:04:08.125Z,-0.35
2018-02-13T05:05:08.337Z,-0.38
2018-02-13T05:06:08.311Z,-0.39
2018-02-13T05:07:08.277Z,-0.39
2018-02-13T05:08:07.991Z,-0.49
2018-02-13T05:09:07.965Z,-0.54
2018-02-13T05:10:08.176Z,-0.41
2018-02-13T05:11:07.650Z,-0.44
2018-02-13T05:12:07.860Z,-0.53
2018-02-13T05:13:08.074Z,-0.56
2018-02-13T05:14:07.800Z,-0.57
2018-02-13T05:15:07.764Z,-0.5
2018-02-13T05:16:07.728Z,-0.54
2018-02-13T05:17:07.452Z,-0.53
2018-02-13T05:18:07.910Z,-0.65
2018-02-13T05:19:07.629Z,-0.65
2018-02-13T05:20:07.594Z,-0.68
2018-02-13T05:21:07.563Z,-0.62
2018-02-13T05:22:07.531Z,-0.53
2018-02-13T05:23:07.497Z,-0.61
2018-02-13T05:24:07.491Z,-0.59
2018-02-13T05:25:07.432Z,-0.68
2018-02-13T05:26:07.395Z,-0.56
2018-02-13T05:27:07.371Z,-0.62
2018-02-13T05:28:07.577Z,-0.62
2018-02-13T05:29:07.543Z,-0.7
2018-02-13T05:30:07.521Z,-0.67
2018-02-13T05:31:07.234Z,-0.54
2018-02-13T05:32:06.951Z,-0.54
2018-02-13T05:33:07.411Z,-0.67
2018-02-13T05:34:07.382Z,-0.52
2018-02-13T05:35:07.094Z,-0.52
2018-02-13T05:36:07.062Z,-0.57
2018-02-13T05:37:06.783Z,-0.61
2018-02-13T05:38:07.242Z,-0.52
2018-02-13T05:39:07.209Z,-0.56
2018-02-13T05:40:07.176Z,-0.5
2018-02-13T05:41:07.141Z,-0.52
2018-02-13T05:42:07.109Z,-0.46
2018-02-13T05:43:06.583Z,-0.5
2018-02-13T05:44:07.048Z,-0.47
2018-02-13T05:45:07.062Z,-0.61
2018-02-13T05:46:06.730Z,-0.59
2018-02-13T05:47:06.946Z,-0.61
2018-02-13T05:48:06.909Z,-0.61
2018-02-13T05:49:06.880Z,-0.52
2018-02-13T05:50:06.597Z,-0.65
2018-02-13T05:51:06.809Z,-0.61
2018-02-13T05:52:06.773Z,-0.47
2018-02-13T05:53:06.753Z,-0.53
2018-02-13T05:54:06.708Z,-0.46
2018-02-13T05:55:06.436Z,-0.47
2018-02-13T05:56:06.642Z,-0.53
2018-02-13T05:57:06.611Z,-0.53
2018-02-13T05:58:06.582Z,-0.44
2018-02-13T05:59:06.547Z,-0.43
2018-02-13T06:00:06.513Z,-0.49
2018-02-13T06:01:06.247Z,-0.46
2018-02-13T06:02:06.443Z,-0.61
2018-02-13T06:03:06.417Z,-0.52
2018-02-13T06:04:06.384Z,-0.46
2018-02-13T06:05:06.404Z,-0.62
2018-02-13T06:06:06.361Z,-0.52
2018-02-13T06:07:06.035Z,-0.54
2018-02-13T06:08:06.249Z,-0.61
2018-02-13T06:09:06.213Z,-0.64
2018-02-13T06:10:05.930Z,-0.59
2018-02-13T06:11:05.899Z,-0.64
2018-02-13T06:12:05.876Z,-0.53
2018-02-13T06:13:05.845Z,-0.61
2018-02-13T06:14:05.798Z,-0.65
2018-02-13T06:15:05.771Z,-0.53
2018-02-13T06:16:05.736Z,-0.54
2018-02-13T06:17:05.699Z,-0.47
2018-02-13T06:18:05.911Z,-0.49
2018-02-13T06:19:05.636Z,-0.49
2018-02-13T06:20:05.847Z,-0.47
2018-02-13T06:21:05.811Z,-0.47
2018-02-13T06:22:05.784Z,-0.5
2018-02-13T06:23:05.503Z,-0.47
2018-02-13T06:24:05.223Z,-0.47
2018-02-13T06:25:05.689Z,-0.53
2018-02-13T06:26:05.647Z,-0.46
2018-02-13T06:27:05.615Z,-0.44
2018-02-13T06:28:05.584Z,-0.41
2018-02-13T06:29:05.308Z,-0.56
2018-02-13T06:30:05.276Z,-0.36
2018-02-13T06:31:04.989Z,-0.36
2018-02-13T06:32:05.476Z,-0.36
2018-02-13T06:33:05.410Z,-0.47
2018-02-13T06:34:05.134Z,-0.46
2018-02-13T06:35:05.106Z,-0.41
2018-02-13T06:36:05.350Z,-0.44
2018-02-13T06:37:05.038Z,-0.52
2018-02-13T06:38:05.257Z,-0.38
2018-02-13T06:39:04.976Z,-0.36
2018-02-13T06:40:04.937Z,-0.47
2018-02-13T06:41:04.906Z,-0.36
2018-02-13T06:42:04.981Z,-0.39
2018-02-13T06:43:04.893Z,-0.32
2018-02-13T06:44:05.052Z,-0.36
2018-02-13T06:45:04.768Z,-0.47
2018-02-13T06:46:04.737Z,-0.35
2018-02-13T06:47:04.703Z,-0.43
2018-02-13T06:48:04.672Z,-0.41
2018-02-13T06:49:04.640Z,-0.47
2018-02-13T06:50:04.856Z,-0.32
2018-02-13T06:51:04.824Z,-0.34
2018-02-13T06:52:04.828Z,-0.38
2018-02-13T06:53:04.504Z,-0.34
2018-02-13T06:54:04.478Z,-0.34
2018-02-13T06:55:04.452Z,-0.38
2018-02-13T06:56:04.653Z,-0.29
2018-02-13T06:57:04.370Z,-0.38
2018-02-13T06:58:04.425Z,-0.38
2018-02-13T06:59:04.306Z,-0.35
2018-02-13T07:00:04.526Z,-0.38
2018-02-13T07:01:04.238Z,-0.35
2018-02-13T07:02:04.493Z,-0.31
2018-02-13T07:03:04.176Z,-0.32
2018-02-13T07:04:04.384Z,-0.17
2018-02-13T07:05:04.356Z,-0.25
2018-02-13T07:06:04.320Z,-0.2
2018-02-13T07:07:04.303Z,-0.23
2018-02-13T07:08:04.262Z,-0.14
2018-02-13T07:09:03.975Z,-0.23
2018-02-13T07:10:03.945Z,-0.21
2018-02-13T07:11:03.664Z,-0.14
2018-02-13T07:12:03.875Z,-0.11
2018-02-13T07:13:03.845Z,-0.14
2018-02-13T07:14:04.060Z,-0.06
2018-02-13T07:15:03.988Z,-0.08
2018-02-13T07:16:04.038Z,-0.08
2018-02-13T07:17:03.974Z,-0.06
2018-02-13T07:18:03.678Z,-0.02
2018-02-13T07:19:03.897Z,-0.11
2018-02-13T07:20:03.610Z,-0.11
2018-02-13T07:21:03.335Z,-0.02
2018-02-13T07:22:03.793Z,-0.07
2018-02-13T07:23:03.792Z,-0.07
2018-02-13T07:24:03.727Z,-0.08
2018-02-13T07:25:03.453Z,0.01
2018-02-13T07:26:03.753Z,-0.06
2018-02-13T07:27:03.629Z,-0.07
2018-02-13T07:28:03.602Z,-0.06
2018-02-13T07:29:03.570Z,-0.06
2018-02-13T07:30:03.044Z,0.04
2018-02-13T07:31:03.500Z,0.01
2018-02-13T07:32:03.364Z,0
2018-02-13T07:33:03.369Z,0.1
2018-02-13T07:34:03.382Z,0.03
2018-02-13T07:35:03.654Z,0.05
2018-02-13T07:36:03.094Z,0.1
2018-02-13T07:37:03.301Z,-0.02
2018-02-13T07:38:03.274Z,0.11
2018-02-13T07:39:03.248Z,0.11
2018-02-13T07:40:02.718Z,0.08
2018-02-13T07:41:03.191Z,0.12
2018-02-13T07:42:03.140Z,0.19
2018-02-13T07:43:02.863Z,0.18
2018-02-13T07:44:02.589Z,0.19
2018-02-13T07:45:03.048Z,0.23
2018-02-13T07:46:02.766Z,0.19
2018-02-13T07:47:02.982Z,0.22
2018-02-13T07:48:02.954Z,0.23
2018-02-13T07:49:02.916Z,0.25
2018-02-13T07:50:02.633Z,0.19
2018-02-13T07:51:02.856Z,0.23
2018-02-13T07:52:02.572Z,0.29
2018-02-13T07:53:02.792Z,0.32
2018-02-13T07:54:02.511Z,0.41
2018-02-13T07:55:02.230Z,0.4
2018-02-13T07:56:02.688Z,0.43
2018-02-13T07:57:02.655Z,0.4
2018-02-13T07:58:02.642Z,0.4
2018-02-13T07:59:02.588Z,0.47
2018-02-13T08:00:02.317Z,0.44
2018-02-13T08:01:02.299Z,0.41
2018-02-13T08:02:02.257Z,0.55
2018-02-13T08:03:02.465Z,0.52
2018-02-13T08:04:02.187Z,0.59
2018-02-13T08:05:02.437Z,0.49
2018-02-13T08:06:03.058Z,0.74
2018-02-13T08:07:03.308Z,0.69
2018-02-13T08:08:02.057Z,0.7
2018-02-13T08:09:02.273Z,0.7
2018-02-13T08:10:02.295Z,0.65
2018-02-13T08:11:01.960Z,0.78
2018-02-13T08:12:02.177Z,0.7
2018-02-13T08:13:01.896Z,0.92
2018-02-13T08:14:01.866Z,0.78
2018-02-13T08:15:02.191Z,0.92
2018-02-13T08:16:02.046Z,0.84
2018-02-13T08:17:01.770Z,0.91
2018-02-13T08:18:01.986Z,0.86
2018-02-13T08:19:01.950Z,0.94
2018-02-13T08:20:01.940Z,0.99
2018-02-13T08:21:01.644Z,1.02
2018-02-13T08:22:01.609Z,0.92
2018-02-13T08:23:01.592Z,1.05
2018-02-13T08:24:01.543Z,1.1
2018-02-13T08:25:01.759Z,1.12
2018-02-13T08:26:01.483Z,1.1
2018-02-13T08:27:01.453Z,1.13
2018-02-13T08:28:01.668Z,1.16
2018-02-13T08:29:01.650Z,1.14
2018-02-13T08:30:01.601Z,1.26
2018-02-13T08:31:01.081Z,1.26
2018-02-13T08:32:01.541Z,1.23
2018-02-13T08:33:01.505Z,1.26
2018-02-13T08:34:01.481Z,1.28
2018-02-13T08:35:01.508Z,1.34
2018-02-13T08:36:01.170Z,1.3
2018-02-13T08:37:01.496Z,1.32
2018-02-13T08:38:01.359Z,1.37
2018-02-13T08:39:01.070Z,1.37
2018-02-13T08:40:01.039Z,1.41
2018-02-13T08:41:00.764Z,1.45
2018-02-13T08:42:00.980Z,1.34
2018-02-13T08:43:01.192Z,1.37
2018-02-13T08:44:00.670Z,1.44
2018-02-13T08:45:00.638Z,1.4
2018-02-13T08:46:00.854Z,1.49
2018-02-13T08:47:01.112Z,1.52
2018-02-13T08:48:01.043Z,1.53
2018-02-13T08:49:00.760Z,1.55
2018-02-13T08:50:00.487Z,1.49
2018-02-13T08:51:00.943Z,1.56
2018-02-13T08:52:00.665Z,1.56
2018-02-13T08:53:00.881Z,1.6
2018-02-13T08:54:00.848Z,1.71
2018-02-13T08:55:00.570Z,1.66
2018-02-13T08:56:00.784Z,1.63
2018-02-13T08:57:00.261Z,1.67
2018-02-13T08:58:00.479Z,1.8
2018-02-13T08:59:00.692Z,1.84
2018-02-13T09:00:00.414Z,1.78
2018-02-13T09:01:00.383Z,1.88
2018-02-13T09:02:00.598Z,1.92
2018-02-13T09:03:00.562Z,2.02
2018-02-13T09:04:00.534Z,2.02
2018-02-13T09:05:00.512Z,2.02
2018-02-13T09:06:00.239Z,2.14
2018-02-13T09:07:00.451Z,2.14
2018-02-13T09:08:00.173Z,2.17
2018-02-13T09:08:59.889Z,2.11
2018-02-13T09:10:00.353Z,2.1
2018-02-13T09:10:59.829Z,2.18
2018-02-13T09:12:00.049Z,2.17
2018-02-13T09:13:00.257Z,2.22
2018-02-13T09:13:59.982Z,2.29
2018-02-13T09:14:59.952Z,2.24
2018-02-13T09:15:59.966Z,2.29
2018-02-13T09:16:59.885Z,2.32
2018-02-13T09:17:59.611Z,2.32
2018-02-13T09:19:00.074Z,2.42
2018-02-13T09:19:59.548Z,2.35
2018-02-13T09:21:00.238Z,2.47
2018-02-13T09:21:59.981Z,2.36
2018-02-13T09:22:59.951Z,2.43
2018-02-13T09:23:59.917Z,2.56
2018-02-13T09:24:59.889Z,2.61
2018-02-13T09:25:59.857Z,2.56
2018-02-13T09:26:59.828Z,2.57
2018-02-13T09:27:59.554Z,2.62
2018-02-13T09:28:59.765Z,2.62
2018-02-13T09:29:59.736Z,2.67
2018-02-13T09:30:59.411Z,2.65
2018-02-13T09:31:59.433Z,2.64
2018-02-13T09:32:59.396Z,2.75
2018-02-13T09:33:59.370Z,2.75
2018-02-13T09:34:59.340Z,2.77
2018-02-13T09:35:59.314Z,2.8
2018-02-13T09:36:59.524Z,2.85
2018-02-13T09:37:59.500Z,2.85
2018-02-13T09:38:58.973Z,2.87
2018-02-13T09:39:59.188Z,2.9
2018-02-13T09:40:59.159Z,2.95
2018-02-13T09:41:58.906Z,2.98
2018-02-13T09:42:59.346Z,2.95
2018-02-13T09:43:59.066Z,2.98
2018-02-13T09:44:58.791Z,2.95
2018-02-13T09:45:59.270Z,3.01
2018-02-13T09:46:59.054Z,3.01
2018-02-13T09:47:59.194Z,3
2018-02-13T09:48:59.161Z,3.08
2018-02-13T09:49:59.132Z,3.14
2018-02-13T09:50:58.853Z,3.14
2018-02-13T09:51:58.823Z,3.16
2018-02-13T09:52:58.796Z,3.13
2018-02-13T09:53:59.009Z,3.22
2018-02-13T09:54:58.979Z,3.22
2018-02-13T09:55:58.951Z,3.26
2018-02-13T09:56:58.673Z,3.29
2018-02-13T09:57:58.894Z,3.34
2018-02-13T09:58:59.007Z,3.32
2018-02-13T09:59:58.585Z,3.41
2018-02-13T10:00:58.801Z,3.42
2018-02-13T10:01:58.525Z,3.37
2018-02-13T10:02:58.742Z,3.41
2018-02-13T10:03:58.746Z,3.32
2018-02-13T10:04:58.684Z,3.45
2018-02-13T10:05:58.160Z,3.48
2018-02-13T10:06:58.379Z,3.58
2018-02-13T10:07:58.593Z,3.55
2018-02-13T10:08:58.458Z,3.53
2018-02-13T10:09:58.293Z,3.56
2018-02-13T10:10:58.255Z,3.51
2018-02-13T10:11:58.480Z,3.6
2018-02-13T10:12:58.543Z,3.65
2018-02-13T10:13:58.588Z,3.66
2018-02-13T10:14:58.145Z,3.6
2018-02-13T10:15:58.114Z,3.74
2018-02-13T10:16:58.326Z,3.6
2018-02-13T10:17:58.297Z,3.65
2018-02-13T10:18:58.024Z,3.78
2018-02-13T10:19:57.743Z,3.81
2018-02-13T10:20:58.209Z,3.8
2018-02-13T10:21:57.936Z,3.84
2018-02-13T10:22:58.149Z,3.83
2018-02-13T10:23:58.137Z,3.81
2018-02-13T10:24:57.845Z,3.95
2018-02-13T10:25:57.570Z,3.83
2018-02-13T10:26:58.042Z,3.86
2018-02-13T10:27:57.759Z,3.99
2018-02-13T10:28:57.726Z,3.91
2018-02-13T10:29:57.946Z,3.88
2018-02-13T10:30:57.670Z,3.91
2018-02-13T10:31:58.004Z,3.92
2018-02-13T10:32:57.919Z,3.91
2018-02-13T10:33:57.586Z,3.92
2018-02-13T10:34:57.548Z,3.98
2018-02-13T10:35:57.764Z,4.08
2018-02-13T10:36:57.496Z,4.06
2018-02-13T10:37:57.713Z,4.08
2018-02-13T10:38:57.683Z,4.16
2018-02-13T10:39:57.405Z,4.08
2018-02-13T10:40:57.374Z,4.14
2018-02-13T10:41:57.352Z,4.2
2018-02-13T10:42:57.323Z,4.19
2018-02-13T10:43:57.534Z,4.28
2018-02-13T10:44:57.518Z,4.28
2018-02-13T10:45:57.235Z,4.24
2018-02-13T10:46:57.450Z,4.31
2018-02-13T10:47:57.428Z,4.38
2018-02-13T10:48:57.143Z,4.35
2018-02-13T10:49:57.122Z,4.37
2018-02-13T10:50:58.078Z,4.53
2018-02-13T10:51:57.318Z,4.53
2018-02-13T10:52:57.277Z,4.52
2018-02-13T10:53:57.000Z,4.59
2018-02-13T10:54:56.974Z,4.56
2018-02-13T10:55:57.189Z,4.53
2018-02-13T10:56:56.669Z,4.53
2018-02-13T10:57:56.886Z,4.55
2018-02-13T10:58:56.859Z,4.58
2018-02-13T10:59:56.583Z,4.66
2018-02-13T11:00:56.800Z,4.55
2018-02-13T11:01:56.772Z,4.68
2018-02-13T11:02:56.990Z,4.67
2018-02-13T11:03:56.719Z,4.7
2018-02-13T11:04:56.441Z,4.66
2018-02-13T11:05:56.691Z,4.71
2018-02-13T11:06:56.679Z,4.71
2018-02-13T11:07:56.850Z,4.71
2018-02-13T11:08:56.574Z,4.75
2018-02-13T11:09:56.301Z,4.7
2018-02-13T11:10:56.769Z,4.82
2018-02-13T11:11:56.737Z,4.77
2018-02-13T11:12:56.457Z,4.86
2018-02-13T11:13:56.943Z,4.78
2018-02-13T11:14:57.100Z,4.89
2018-02-13T11:15:56.382Z,4.9
2018-02-13T11:16:56.347Z,4.94
2018-02-13T11:17:56.318Z,4.86
2018-02-13T11:18:56.543Z,4.84
2018-02-13T11:19:56.309Z,4.8
2018-02-13T11:20:56.233Z,4.78
2018-02-13T11:21:56.446Z,4.86
2018-02-13T11:22:56.425Z,4.96
2018-02-13T11:23:56.392Z,4.86
2018-02-13T11:24:56.122Z,4.87
2018-02-13T11:25:56.412Z,4.97
2018-02-13T11:26:56.621Z,5.04
2018-02-13T11:27:56.277Z,4.99
2018-02-13T11:28:56.011Z,5.02
2018-02-13T11:29:55.982Z,4.97
2018-02-13T11:30:56.197Z,4.94
2018-02-13T11:31:55.924Z,4.97
2018-02-13T11:32:55.917Z,4.97
2018-02-13T11:33:56.117Z,4.87
2018-02-13T11:34:56.085Z,4.99
2018-02-13T11:35:55.810Z,4.96
2018-02-13T11:36:55.777Z,4.93
2018-02-13T11:37:55.754Z,4.97
2018-02-13T11:38:55.974Z,4.92
2018-02-13T11:39:55.704Z,4.96
2018-02-13T11:40:55.423Z,4.92
2018-02-13T11:41:55.884Z,5
2018-02-13T11:42:55.858Z,5.05
2018-02-13T11:43:55.587Z,5.04
2018-02-13T11:44:55.812Z,5
2018-02-13T11:45:55.528Z,4.99
2018-02-13T11:46:55.745Z,5.04
2018-02-13T11:47:55.480Z,5.15
2018-02-13T11:48:55.443Z,5.11
2018-02-13T11:49:55.414Z,5.11
2018-02-13T11:50:55.633Z,5.15
2018-02-13T11:51:55.360Z,5.12
2018-02-13T11:52:55.582Z,5.15
2018-02-13T11:53:55.552Z,5.14
2018-02-13T11:54:55.274Z,5.29
2018-02-13T11:55:55.497Z,5.28
2018-02-13T11:56:55.572Z,5.25
2018-02-13T11:57:55.442Z,5.32
2018-02-13T11:58:55.412Z,5.29
2018-02-13T11:59:55.380Z,5.26
2018-02-13T12:00:55.115Z,5.32
2018-02-13T12:01:55.327Z,5.33
2018-02-13T12:02:55.117Z,5.35
2018-02-13T12:03:55.268Z,5.44
2018-02-13T12:04:55.026Z,5.48
2018-02-13T12:05:55.216Z,5.38
2018-02-13T12:06:54.940Z,5.36
2018-02-13T12:07:55.159Z,5.44
2018-02-13T12:08:55.132Z,5.53
2018-02-13T12:09:55.103Z,5.44
2018-02-13T12:10:55.079Z,5.44
2018-02-13T12:11:55.047Z,5.51
2018-02-13T12:12:55.024Z,5.51
2018-02-13T12:13:54.994Z,5.53
2018-02-13T12:14:54.968Z,5.54
2018-02-13T12:15:54.943Z,5.5
2018-02-13T12:16:54.910Z,5.64
2018-02-13T12:17:54.883Z,5.61
2018-02-13T12:18:54.610Z,5.56
2018-02-13T12:19:54.583Z,5.57
2018-02-13T12:20:54.800Z,5.65
2018-02-13T12:21:54.769Z,5.59
2018-02-13T12:22:54.747Z,5.71
2018-02-13T12:23:54.725Z,5.66
2018-02-13T12:24:54.694Z,5.69
2018-02-13T12:25:54.420Z,5.73
2018-02-13T12:26:54.638Z,5.8
2018-02-13T12:27:54.366Z,5.73
2018-02-13T12:28:54.582Z,5.8
2018-02-13T12:29:54.558Z,5.82
2018-02-13T12:30:54.525Z,5.87
2018-02-13T12:31:54.495Z,5.86
2018-02-13T12:32:54.224Z,5.82
2018-02-13T12:33:54.445Z,5.9
2018-02-13T12:34:54.308Z,5.82
2018-02-13T12:35:54.139Z,5.82
2018-02-13T12:36:54.647Z,5.75
2018-02-13T12:37:54.084Z,5.71
2018-02-13T12:38:54.304Z,5.61
2018-02-13T12:39:54.404Z,5.66
2018-02-13T12:40:53.758Z,5.57
2018-02-13T12:41:53.976Z,5.66
2018-02-13T12:42:54.231Z,5.62
2018-02-13T12:43:54.524Z,5.59
2018-02-13T12:44:54.141Z,5.68
2018-02-13T12:45:54.116Z,5.73
2018-02-13T12:46:53.836Z,5.71
2018-02-13T12:47:54.057Z,5.76
2018-02-13T12:48:54.034Z,5.79
2018-02-13T12:49:54.006Z,5.82
2018-02-13T12:50:53.979Z,5.84
2018-02-13T12:51:53.953Z,5.83
2018-02-13T12:52:53.922Z,5.93
2018-02-13T12:53:53.656Z,6.05
2018-02-13T12:54:53.874Z,6.05
2018-02-13T12:55:53.843Z,6.14
2018-02-13T12:56:53.812Z,6.3
2018-02-13T12:57:53.790Z,6.33
2018-02-13T12:58:53.516Z,6.42
2018-02-13T12:59:53.736Z,6.51
2018-02-13T13:00:53.465Z,6.49
2018-02-13T13:01:53.190Z,6.59
2018-02-13T13:02:53.410Z,6.67
2018-02-13T13:03:53.386Z,6.64
2018-02-13T13:04:53.616Z,6.67
2018-02-13T13:05:53.087Z,6.64
2018-02-13T13:06:53.308Z,6.69
2018-02-13T13:07:53.525Z,6.62
2018-02-13T13:08:53.006Z,6.67
2018-02-13T13:09:53.470Z,6.51
2018-02-13T13:10:53.197Z,6.67
2018-02-13T13:11:53.439Z,6.7
2018-02-13T13:12:53.392Z,6.64
2018-02-13T13:13:52.874Z,6.6